createdAt,value
2017-12-29T00:01:39.330Z,3.00
2017-12-29T00:04:06.841Z,2.70
2017-12-29T00:06:34.299Z,5.27
2017-12-29T00:09:01.746Z,2.87
2017-12-29T00:11:29.216Z,3.13
2017-12-29T00:13:56.678Z,2.67
2017-12-29T00:16:24.125Z,2.07
2017-12-29T00:18:51.598Z,2.50
2017-12-29T00:21:19.051Z,2.77
2017-12-29T00:23:46.505Z,2.50
2017-12-29T00:26:13.962Z,2.63
2017-12-29T00:28:41.413Z,2.43
2017-12-29T00:31:08.871Z,2.40
2017-12-29T00:33:36.338Z,2.67
2017-12-29T00:36:03.793Z,2.30
2017-12-29T00:38:31.246Z,2.20
2017-12-29T00:40:58.713Z,2.70
2017-12-29T00:43:26.163Z,2.90
2017-12-29T00:45:53.614Z,2.80
2017-12-29T00:48:21.081Z,2.67
2017-12-29T00:50:48.534Z,2.13
2017-12-29T00:53:15.994Z,2.73
2017-12-29T00:55:43.466Z,2.80
2017-12-29T00:58:10.958Z,3.27
2017-12-29T01:00:39.176Z,3.10
2017-12-29T01:03:06.659Z,2.33
2017-12-29T01:05:34.105Z,2.37
2017-12-29T01:08:01.558Z,2.80
2017-12-29T01:10:29.786Z,2.37
2017-12-29T01:12:58.003Z,3.00
2017-12-29T01:15:25.451Z,2.87
2017-12-29T01:17:52.917Z,3.03
2017-12-29T01:20:20.375Z,2.90
2017-12-29T01:22:47.817Z,3.20
2017-12-29T01:25:16.055Z,3.17
2017-12-29T01:27:44.278Z,2.40
2017-12-29T01:30:11.735Z,2.60
2017-12-29T01:32:39.229Z,3.30
2017-12-29T01:35:07.451Z,3.30
2017-12-29T01:37:34.902Z,4.50
2017-12-29T01:40:02.369Z,2.23
2017-12-29T01:42:29.834Z,2.83
2017-12-29T01:44:57.302Z,3.37
2017-12-29T01:47:24.877Z,2.77
2017-12-29T01:49:52.330Z,2.30
2017-12-29T01:52:19.790Z,1.90
2017-12-29T01:54:47.274Z,2.60
2017-12-29T01:57:15.551Z,1.87
2017-12-29T01:59:43.778Z,2.60
2017-12-29T02:02:11.262Z,3.03
2017-12-29T02:04:39.535Z,2.13
2017-12-29T02:07:06.986Z,2.43
2017-12-29T02:09:34.456Z,2.73
2017-12-29T02:12:02.727Z,2.90
2017-12-29T02:14:31.815Z,2.70
2017-12-29T02:16:59.293Z,2.10
2017-12-29T02:19:27.509Z,3.13
2017-12-29T02:21:55.009Z,2.60
2017-12-29T02:24:22.474Z,3.07
2017-12-29T02:26:49.930Z,2.73
2017-12-29T02:29:17.395Z,2.37
2017-12-29T02:31:45.635Z,3.23
2017-12-29T02:34:13.103Z,2.67
2017-12-29T02:36:41.340Z,2.60
2017-12-29T02:39:08.813Z,3.50
2017-12-29T02:41:36.293Z,2.20
2017-12-29T02:44:03.755Z,3.00
2017-12-29T02:46:31.226Z,2.50
2017-12-29T02:48:59.451Z,2.30
2017-12-29T02:51:26.915Z,3.20
2017-12-29T02:53:54.425Z,3.10
2017-12-29T02:56:22.646Z,2.40
2017-12-29T02:58:50.142Z,3.40
2017-12-29T03:01:17.593Z,2.27
2017-12-29T03:03:45.811Z,2.70
2017-12-29T03:06:13.274Z,2.43
2017-12-29T03:08:40.739Z,2.70
2017-12-29T03:11:08.194Z,2.80
2017-12-29T03:13:35.649Z,2.63
2017-12-29T03:16:03.118Z,2.37
2017-12-29T03:18:30.593Z,3.07
2017-12-29T03:20:58.058Z,2.80
2017-12-29T03:23:25.526Z,3.13
2017-12-29T03:25:53.791Z,2.70
2017-12-29T03:28:21.246Z,2.43
2017-12-29T03:30:48.735Z,3.40
2017-12-29T03:33:16.941Z,2.23
2017-12-29T03:35:44.439Z,3.63
2017-12-29T03:38:12.682Z,4.60
2017-12-29T03:40:40.133Z,3.10
2017-12-29T03:43:07.589Z,3.80
2017-12-29T03:45:35.083Z,3.10
2017-12-29T03:48:02.662Z,4.77
2017-12-29T03:50:30.918Z,5.10
2017-12-29T03:52:58.386Z,5.83
2017-12-29T03:55:26.610Z,6.00
2017-12-29T03:57:54.068Z,5.27
2017-12-29T04:00:21.539Z,5.53
2017-12-29T04:02:49.002Z,5.70
2017-12-29T04:05:16.532Z,6.27
2017-12-29T04:07:44.000Z,5.40
2017-12-29T04:10:11.445Z,6.07
2017-12-29T04:12:38.902Z,5.90
2017-12-29T04:15:06.374Z,7.07
2017-12-29T04:17:33.834Z,6.83
2017-12-29T04:20:01.290Z,7.40
2017-12-29T04:22:28.757Z,7.20
2017-12-29T04:24:56.211Z,7.57
2017-12-29T04:27:23.674Z,7.77
2017-12-29T04:29:51.146Z,8.87
2017-12-29T04:32:18.598Z,10.43
2017-12-29T04:34:46.063Z,9.10
2017-12-29T04:37:13.539Z,7.80
2017-12-29T04:39:41.756Z,7.70
2017-12-29T04:42:09.219Z,9.00
2017-12-29T04:44:36.681Z,8.67
2017-12-29T04:47:04.142Z,9.00
2017-12-29T04:49:31.597Z,9.23
2017-12-29T04:51:59.065Z,8.60
2017-12-29T04:54:26.634Z,9.33
2017-12-29T04:56:54.085Z,10.20
2017-12-29T04:59:21.558Z,12.00
2017-12-29T05:01:49.803Z,9.10
2017-12-29T05:04:17.258Z,10.87
2017-12-29T05:06:44.725Z,9.27
2017-12-29T05:09:12.192Z,9.80
2017-12-29T05:11:39.641Z,8.07
2017-12-29T05:14:07.113Z,7.33
2017-12-29T05:16:35.342Z,8.03
2017-12-29T05:19:02.807Z,8.70
2017-12-29T05:21:31.038Z,9.50
2017-12-29T05:23:59.263Z,8.87
2017-12-29T05:26:26.722Z,7.80
2017-12-29T05:28:54.185Z,8.33
2017-12-29T05:31:21.650Z,8.23
2017-12-29T05:33:49.098Z,8.20
2017-12-29T05:36:16.574Z,7.40
2017-12-29T05:38:44.034Z,8.03
2017-12-29T05:41:12.261Z,7.93
2017-12-29T05:43:39.739Z,8.00
2017-12-29T05:46:07.194Z,9.33
2017-12-29T05:48:34.645Z,7.40
2017-12-29T05:51:02.123Z,7.70
2017-12-29T05:53:29.580Z,9.27
2017-12-29T05:55:57.034Z,7.43
2017-12-29T05:58:24.507Z,9.90
2017-12-29T06:00:52.729Z,12.00
2017-12-29T06:03:20.183Z,9.50
2017-12-29T06:05:47.658Z,10.00
2017-12-29T06:08:15.143Z,11.17
2017-12-29T06:10:42.595Z,9.37
2017-12-29T06:13:10.058Z,11.20
2017-12-29T06:15:37.530Z,10.40
2017-12-29T06:18:05.752Z,12.63
2017-12-29T06:20:33.227Z,11.60
2017-12-29T06:23:00.681Z,10.80
2017-12-29T06:25:28.157Z,13.00
2017-12-29T06:27:55.613Z,13.07
2017-12-29T06:30:23.083Z,12.00
2017-12-29T06:32:51.307Z,12.13
2017-12-29T06:35:18.783Z,12.37
2017-12-29T06:37:46.237Z,12.20
2017-12-29T06:40:13.698Z,10.97
2017-12-29T06:42:41.177Z,11.73
2017-12-29T06:45:08.634Z,12.33
2017-12-29T06:47:36.093Z,12.60
2017-12-29T06:50:03.595Z,12.30
2017-12-29T06:52:31.058Z,12.60
2017-12-29T06:54:58.518Z,13.10
2017-12-29T06:57:26.042Z,13.50
2017-12-29T06:59:54.304Z,12.77
2017-12-29T07:02:22.585Z,13.10
2017-12-29T07:04:51.118Z,14.07
2017-12-29T07:07:18.652Z,13.17
2017-12-29T07:09:46.118Z,13.40
2017-12-29T07:12:13.609Z,12.90
2017-12-29T07:14:41.076Z,12.80
2017-12-29T07:17:08.525Z,12.53
2017-12-29T07:19:36.001Z,12.40
2017-12-29T07:22:04.235Z,13.57
2017-12-29T07:24:31.751Z,12.87
2017-12-29T07:26:59.264Z,11.57
2017-12-29T07:29:26.879Z,12.07
2017-12-29T07:31:54.559Z,11.43
2017-12-29T07:34:22.023Z,10.33
2017-12-29T07:36:49.504Z,9.50
2017-12-29T07:39:16.955Z,11.10
2017-12-29T07:41:44.426Z,9.47
2017-12-29T07:44:11.883Z,10.70
2017-12-29T07:46:39.343Z,11.83
2017-12-29T07:49:06.814Z,10.20
2017-12-29T07:51:35.043Z,9.90
2017-12-29T07:54:02.498Z,10.80
2017-12-29T07:56:29.989Z,12.50
2017-12-29T07:58:57.458Z,12.00
2017-12-29T08:01:25.690Z,13.53
2017-12-29T08:03:53.183Z,12.63
2017-12-29T08:06:20.639Z,13.60
2017-12-29T08:08:48.138Z,11.90
2017-12-29T08:11:15.602Z,13.40
2017-12-29T08:13:43.066Z,13.67
2017-12-29T08:16:10.518Z,14.67
2017-12-29T08:18:37.994Z,14.30
2017-12-29T08:21:05.458Z,15.47
2017-12-29T08:23:32.914Z,16.40
2017-12-29T08:26:00.401Z,15.20
2017-12-29T08:28:33.698Z,17.47
2017-12-29T08:31:01.938Z,16.33
2017-12-29T08:33:29.393Z,20.40
2017-12-29T08:35:56.865Z,19.30
2017-12-29T08:38:24.344Z,18.37
2017-12-29T08:40:52.735Z,20.77
2017-12-29T08:43:20.250Z,18.90
2017-12-29T08:45:47.759Z,19.37
2017-12-29T08:48:16.059Z,20.23
2017-12-29T08:50:43.661Z,20.87
2017-12-29T08:53:11.154Z,20.70
2017-12-29T08:55:38.714Z,20.97
2017-12-29T08:58:06.302Z,18.47
2017-12-29T09:00:33.872Z,20.23
2017-12-29T09:03:01.461Z,18.43
2017-12-29T09:05:29.002Z,17.43
2017-12-29T09:07:56.502Z,19.10
2017-12-29T09:10:24.005Z,17.50
2017-12-29T09:12:51.522Z,18.50
2017-12-29T09:15:19.008Z,17.03
2017-12-29T09:17:46.625Z,16.33
2017-12-29T09:20:14.853Z,14.70
2017-12-29T09:22:42.330Z,16.97
2017-12-29T09:25:09.827Z,15.43
2017-12-29T09:27:37.292Z,17.70
2017-12-29T09:30:04.762Z,15.93
2017-12-29T09:32:32.285Z,14.90
2017-12-29T09:34:59.701Z,15.63
2017-12-29T09:37:27.179Z,15.73
2017-12-29T09:39:54.630Z,15.97
2017-12-29T09:42:22.092Z,15.30
2017-12-29T09:44:49.567Z,14.63
2017-12-29T09:47:17.810Z,13.40
2017-12-29T09:49:45.259Z,12.40
2017-12-29T09:52:12.734Z,14.23
2017-12-29T09:54:40.181Z,13.30
2017-12-29T09:57:07.651Z,13.60
2017-12-29T09:59:35.145Z,12.00
2017-12-29T10:02:02.594Z,16.07
2017-12-29T10:04:30.053Z,13.07
2017-12-29T10:06:57.521Z,11.70
2017-12-29T10:09:24.976Z,11.97
2017-12-29T10:11:52.443Z,12.13
2017-12-29T10:14:19.922Z,12.37
2017-12-29T10:16:47.378Z,12.37
2017-12-29T10:19:14.850Z,10.57
2017-12-29T10:21:42.316Z,11.43
2017-12-29T10:24:09.779Z,10.50
2017-12-29T10:26:38.015Z,10.50
2017-12-29T10:29:05.510Z,11.03
2017-12-29T10:31:32.966Z,10.17
2017-12-29T10:34:01.194Z,9.13
2017-12-29T10:36:28.674Z,9.47
2017-12-29T10:38:56.140Z,10.60
2017-12-29T10:41:23.591Z,9.30
2017-12-29T10:43:51.065Z,10.27
2017-12-29T10:46:18.518Z,10.03
2017-12-29T10:48:45.990Z,10.77
2017-12-29T10:51:14.230Z,8.90
2017-12-29T10:53:41.700Z,7.77
2017-12-29T10:56:09.167Z,8.63
2017-12-29T10:58:37.410Z,9.20
2017-12-29T11:01:04.866Z,9.40
2017-12-29T11:03:32.330Z,9.17
2017-12-29T11:05:59.808Z,10.00
2017-12-29T11:08:27.271Z,9.30
2017-12-29T11:10:54.731Z,8.57
2017-12-29T11:13:22.978Z,8.40
2017-12-29T11:15:50.443Z,9.50
2017-12-29T11:18:17.906Z,7.97
2017-12-29T11:20:45.377Z,10.07
2017-12-29T11:23:13.621Z,10.13
2017-12-29T11:25:41.848Z,8.90
2017-12-29T11:28:09.335Z,8.53
2017-12-29T11:30:36.785Z,11.43
2017-12-29T11:33:04.250Z,10.30
2017-12-29T11:35:31.721Z,9.70
2017-12-29T11:37:59.198Z,9.83
2017-12-29T11:40:26.658Z,10.37
2017-12-29T11:42:54.270Z,10.20
2017-12-29T11:45:21.726Z,9.93
2017-12-29T11:47:49.191Z,11.23
2017-12-29T11:50:16.665Z,10.13
2017-12-29T11:52:44.130Z,10.20
2017-12-29T11:55:11.654Z,11.43
2017-12-29T11:57:39.876Z,10.17
2017-12-29T12:00:07.330Z,9.70
2017-12-29T12:02:34.794Z,11.63
2017-12-29T12:05:02.269Z,9.63
2017-12-29T12:07:30.506Z,11.10
2017-12-29T12:09:57.966Z,11.70
2017-12-29T12:12:25.447Z,10.93
2017-12-29T12:14:53.678Z,9.83
2017-12-29T12:17:21.126Z,11.93
2017-12-29T12:19:48.609Z,11.20
2017-12-29T12:22:16.063Z,11.00
2017-12-29T12:24:43.526Z,10.73
2017-12-29T12:27:10.990Z,11.87
2017-12-29T12:29:38.454Z,10.10
2017-12-29T12:32:05.902Z,12.07
2017-12-29T12:34:33.377Z,10.50
2017-12-29T12:37:01.612Z,10.67
2017-12-29T12:39:29.066Z,9.37
2017-12-29T12:41:56.538Z,8.73
2017-12-29T12:44:23.989Z,9.83
2017-12-29T12:46:51.483Z,10.27
2017-12-29T12:49:19.718Z,8.90
2017-12-29T12:51:47.187Z,10.60
2017-12-29T12:54:14.646Z,9.13
2017-12-29T12:56:42.149Z,9.10
2017-12-29T12:59:09.921Z,8.87
2017-12-29T13:01:37.480Z,8.30
2017-12-29T13:04:05.035Z,8.47
2017-12-29T13:06:32.478Z,9.03
2017-12-29T13:09:00.227Z,8.80
2017-12-29T13:11:28.495Z,9.23
2017-12-29T13:13:55.951Z,9.30
2017-12-29T13:16:24.180Z,7.90
2017-12-29T13:18:52.479Z,8.97
2017-12-29T13:21:19.979Z,8.60
2017-12-29T13:23:48.196Z,8.70
2017-12-29T13:26:15.662Z,8.50
2017-12-29T13:28:43.119Z,8.70
2017-12-29T13:31:10.584Z,8.47
2017-12-29T13:33:38.173Z,9.10
2017-12-29T13:36:05.622Z,9.07
2017-12-29T13:38:33.932Z,9.60
2017-12-29T13:41:01.402Z,7.80
2017-12-29T13:43:28.862Z,8.97
2017-12-29T13:45:56.313Z,7.87
2017-12-29T13:48:23.786Z,9.40
2017-12-29T13:50:51.243Z,8.70
2017-12-29T13:53:18.935Z,9.57
2017-12-29T13:55:46.398Z,8.10
2017-12-29T13:58:14.739Z,8.53
2017-12-29T14:00:42.199Z,9.90
2017-12-29T14:03:09.684Z,10.53
2017-12-29T14:05:37.147Z,10.40
2017-12-29T14:08:04.598Z,11.70
2017-12-29T14:10:32.111Z,12.00
2017-12-29T14:12:59.571Z,12.93
2017-12-29T14:15:27.030Z,11.83
2017-12-29T14:17:54.545Z,11.37
2017-12-29T14:20:22.770Z,9.20
2017-12-29T14:22:50.268Z,9.50
2017-12-29T14:25:18.559Z,8.33
2017-12-29T14:27:46.843Z,9.07
2017-12-29T14:30:15.066Z,9.00
2017-12-29T14:32:42.537Z,12.33
2017-12-29T14:35:09.999Z,10.07
2017-12-29T14:37:37.462Z,9.23
2017-12-29T14:40:04.946Z,8.37
2017-12-29T14:42:32.411Z,7.20
2017-12-29T14:44:59.863Z,11.40
2017-12-29T14:47:27.340Z,10.37
2017-12-29T14:49:54.806Z,8.90
2017-12-29T14:52:22.270Z,9.10
2017-12-29T14:54:49.729Z,5.93
2017-12-29T14:57:17.188Z,6.70
2017-12-29T14:59:44.643Z,5.50
2017-12-29T15:02:12.118Z,5.80
2017-12-29T15:04:39.601Z,5.93
2017-12-29T15:07:07.071Z,7.73
2017-12-29T15:09:34.551Z,7.00
2017-12-29T15:12:02.011Z,5.37
2017-12-29T15:14:29.471Z,6.40
2017-12-29T15:16:56.945Z,9.33
2017-12-29T15:19:24.404Z,7.00
2017-12-29T15:21:51.854Z,6.47
2017-12-29T15:24:19.317Z,5.80
2017-12-29T15:26:46.775Z,6.60
2017-12-29T15:29:14.225Z,6.83
2017-12-29T15:31:41.713Z,6.50
2017-12-29T15:34:09.934Z,5.80
2017-12-29T15:36:37.385Z,6.30
2017-12-29T15:39:04.856Z,7.53
2017-12-29T15:41:32.312Z,7.40
2017-12-29T15:43:59.767Z,7.50
2017-12-29T15:46:27.238Z,7.13
2017-12-29T15:48:54.891Z,6.80
2017-12-29T15:51:23.888Z,7.70
2017-12-29T15:53:51.358Z,8.37
2017-12-29T15:56:18.818Z,8.93
2017-12-29T15:58:46.271Z,8.77
2017-12-29T16:01:19.242Z,9.13
2017-12-29T16:03:46.709Z,8.33
2017-12-29T16:06:14.157Z,8.73
2017-12-29T16:08:41.634Z,9.43
2017-12-29T16:11:09.090Z,9.70
2017-12-29T16:13:36.566Z,9.57
2017-12-29T16:16:04.811Z,9.70
2017-12-29T16:18:32.270Z,10.27
2017-12-29T16:20:59.797Z,9.90
2017-12-29T16:23:27.261Z,10.67
2017-12-29T16:25:54.719Z,8.93
2017-12-29T16:28:22.175Z,9.37
2017-12-29T16:30:49.652Z,8.93
2017-12-29T16:33:17.118Z,12.77
2017-12-29T16:35:44.586Z,11.70
2017-12-29T16:38:12.055Z,9.23
2017-12-29T16:40:40.278Z,11.10
2017-12-29T16:43:07.739Z,9.70
2017-12-29T16:45:35.214Z,8.27
2017-12-29T16:48:02.671Z,8.30
2017-12-29T16:50:30.123Z,7.97
2017-12-29T16:52:57.595Z,9.40
2017-12-29T16:55:25.059Z,9.23
2017-12-29T16:57:53.335Z,8.57
2017-12-29T17:00:22.302Z,8.67
2017-12-29T17:02:49.766Z,8.40
2017-12-29T17:05:17.214Z,9.97
2017-12-29T17:07:44.699Z,11.87
2017-12-29T17:10:12.151Z,10.00
2017-12-29T17:12:39.613Z,10.27
2017-12-29T17:15:07.095Z,12.03
2017-12-29T17:17:34.563Z,11.07
2017-12-29T17:20:02.025Z,11.13
2017-12-29T17:22:29.499Z,11.40
2017-12-29T17:24:56.986Z,11.10
2017-12-29T17:27:24.444Z,11.60
2017-12-29T17:29:51.923Z,11.80
2017-12-29T17:32:20.151Z,10.30
2017-12-29T17:34:47.619Z,10.27
2017-12-29T17:37:15.102Z,10.47
2017-12-29T17:39:43.343Z,11.30
2017-12-29T17:42:10.814Z,10.87
2017-12-29T17:44:38.287Z,13.73
2017-12-29T17:47:05.743Z,11.13
2017-12-29T17:49:33.199Z,11.70
2017-12-29T17:52:00.654Z,14.47
2017-12-29T17:54:28.115Z,15.23
2017-12-29T17:56:55.586Z,13.30
2017-12-29T17:59:23.823Z,11.37
2017-12-29T18:01:51.289Z,10.83
2017-12-29T18:04:18.738Z,11.10
2017-12-29T18:06:46.215Z,10.27
2017-12-29T18:09:13.666Z,8.83
2017-12-29T18:11:41.118Z,8.30
2017-12-29T18:14:08.599Z,8.90
2017-12-29T18:16:36.836Z,10.47
2017-12-29T18:19:04.294Z,9.90
2017-12-29T18:21:31.754Z,7.27
2017-12-29T18:23:59.218Z,7.00
2017-12-29T18:26:26.674Z,6.43
2017-12-29T18:28:54.146Z,7.60
2017-12-29T18:31:21.606Z,5.10
2017-12-29T18:33:49.866Z,4.97
2017-12-29T18:36:17.375Z,4.10
2017-12-29T18:38:44.890Z,3.53
2017-12-29T18:41:12.534Z,4.60
2017-12-29T18:43:39.990Z,4.70
2017-12-29T18:46:07.446Z,3.60
2017-12-29T18:48:34.894Z,3.53
2017-12-29T18:51:02.398Z,3.80
2017-12-29T18:53:30.626Z,2.43
2017-12-29T18:55:58.086Z,3.20
2017-12-29T18:58:25.551Z,2.57
2017-12-29T19:00:52.998Z,2.47
2017-12-29T19:03:20.528Z,2.77
2017-12-29T19:05:48.003Z,2.87
2017-12-29T19:08:15.478Z,2.40
2017-12-29T19:10:42.921Z,2.50
2017-12-29T19:13:10.407Z,2.13
2017-12-29T19:15:37.854Z,3.23
2017-12-29T19:18:05.319Z,1.90
2017-12-29T19:20:32.829Z,2.23
2017-12-29T19:23:00.284Z,2.63
2017-12-29T19:25:27.734Z,3.10
2017-12-29T19:27:55.227Z,2.60
2017-12-29T19:30:22.689Z,1.90
2017-12-29T19:32:50.195Z,2.90
2017-12-29T19:35:17.670Z,2.73
2017-12-29T19:37:45.160Z,2.87
2017-12-29T19:40:12.620Z,2.60
2017-12-29T19:42:40.090Z,2.70
2017-12-29T19:45:07.543Z,3.07
2017-12-29T19:47:35.008Z,2.10
2017-12-29T19:50:02.478Z,2.23
2017-12-29T19:52:30.718Z,2.30
2017-12-29T19:54:58.201Z,2.60
2017-12-29T19:57:25.663Z,3.50
2017-12-29T19:59:53.928Z,4.77
2017-12-29T20:02:21.391Z,3.80
2017-12-29T20:04:48.891Z,2.40
2017-12-29T20:07:16.372Z,2.40
2017-12-29T20:09:43.842Z,3.90
2017-12-29T20:12:11.323Z,2.80
2017-12-29T20:14:39.542Z,3.23
2017-12-29T20:17:06.993Z,3.27
2017-12-29T20:19:34.472Z,3.80
2017-12-29T20:22:01.930Z,3.50
2017-12-29T20:24:29.410Z,2.63
2017-12-29T20:26:56.900Z,2.73
2017-12-29T20:29:24.374Z,2.87
2017-12-29T20:31:51.839Z,2.63
2017-12-29T20:34:19.306Z,2.80
2017-12-29T20:36:46.771Z,2.37
2017-12-29T20:39:14.246Z,3.03
2017-12-29T20:41:41.737Z,3.50
2017-12-29T20:44:09.199Z,3.10
2017-12-29T20:46:36.674Z,3.83
2017-12-29T20:49:04.147Z,2.97
2017-12-29T20:51:31.635Z,2.83
2017-12-29T20:53:59.087Z,3.57
2017-12-29T20:56:26.546Z,3.30
2017-12-29T20:58:54.011Z,2.93
2017-12-29T21:01:21.466Z,3.20
2017-12-29T21:03:48.945Z,3.70
2017-12-29T21:06:17.163Z,3.97
2017-12-29T21:08:44.614Z,2.90
2017-12-29T21:11:12.107Z,4.13
2017-12-29T21:13:39.583Z,4.03
2017-12-29T21:16:07.823Z,4.23
2017-12-29T21:18:36.054Z,3.70
2017-12-29T21:21:03.504Z,3.60
2017-12-29T21:23:30.983Z,3.30
2017-12-29T21:25:58.470Z,5.77
2017-12-29T21:28:25.917Z,5.00
2017-12-29T21:30:53.407Z,3.60
2017-12-29T21:33:20.882Z,5.40
2017-12-29T21:35:49.126Z,4.53
2017-12-29T21:38:16.578Z,5.70
2017-12-29T21:40:44.063Z,4.40
2017-12-29T21:43:12.290Z,4.97
2017-12-29T21:45:39.738Z,4.40
2017-12-29T21:48:07.210Z,4.47
2017-12-29T21:50:34.687Z,3.70
2017-12-29T21:53:02.138Z,3.83
2017-12-29T21:55:29.598Z,3.50
2017-12-29T21:57:57.062Z,4.20
2017-12-29T22:00:24.538Z,2.90
2017-12-29T22:02:52.843Z,4.30
2017-12-29T22:05:20.323Z,3.60
2017-12-29T22:07:47.812Z,4.43
2017-12-29T22:10:16.102Z,3.20
2017-12-29T22:12:44.367Z,4.07
2017-12-29T22:15:11.820Z,4.57
2017-12-29T22:17:39.374Z,4.40
2017-12-29T22:20:06.836Z,3.90
2017-12-29T22:22:34.331Z,3.77
2017-12-29T22:25:01.868Z,3.70
2017-12-29T22:27:30.083Z,4.00
2017-12-29T22:29:58.775Z,3.73
2017-12-29T22:32:26.248Z,4.03
2017-12-29T22:34:53.713Z,4.77
2017-12-29T22:37:21.190Z,4.60
2017-12-29T22:39:48.687Z,4.30
2017-12-29T22:42:16.141Z,6.00
2017-12-29T22:44:43.595Z,4.30
2017-12-29T22:47:11.105Z,3.70
2017-12-29T22:49:38.578Z,4.83
2017-12-29T22:52:06.808Z,5.10
2017-12-29T22:54:34.292Z,4.13
2017-12-29T22:57:01.762Z,4.40
2017-12-29T22:59:30.182Z,4.63
2017-12-29T23:01:57.654Z,4.27
2017-12-29T23:04:25.149Z,4.70
2017-12-29T23:06:52.619Z,4.00
2017-12-29T23:09:20.891Z,4.47
2017-12-29T23:11:49.177Z,4.13
2017-12-29T23:14:17.433Z,3.50
2017-12-29T23:16:45.048Z,4.87
2017-12-29T23:19:12.507Z,4.80
2017-12-29T23:21:39.967Z,3.47
2017-12-29T23:24:07.462Z,3.97
2017-12-29T23:26:34.925Z,4.33
2017-12-29T23:29:03.162Z,3.63
2017-12-29T23:31:30.651Z,4.07
2017-12-29T23:33:58.123Z,3.80
2017-12-29T23:36:26.351Z,4.17
2017-12-29T23:38:53.841Z,3.07
2017-12-29T23:41:21.334Z,4.07
2017-12-29T23:43:48.855Z,3.17
2017-12-29T23:46:16.346Z,6.77
2017-12-29T23:48:43.811Z,4.60
2017-12-29T23:51:11.282Z,4.30
2017-12-29T23:53:38.813Z,3.53
2017-12-29T23:56:07.027Z,3.00
2017-12-29T23:58:34.494Z,4.47
